sensor_id;sensor_type;location;lat;lon;timestamp;temperature;humidity
9437;DHT22;4757;59.334;18.034;2023-04-03T00:00:43;-2.00;99.90
9437;DHT22;4757;59.334;18.034;2023-04-03T00:03:11;-2.00;99.90
9437;DHT22;4757;59.334;18.034;2023-04-03T00:05:38;-2.00;99.90
9437;DHT22;4757;59.334;18.034;2023-04-03T00:08:05;-2.00;99.90
9437;DHT22;4757;59.334;18.034;2023-04-03T00:10:36;-2.00;99.90
9437;DHT22;4757;59.334;18.034;2023-04-03T00:13:04;-2.00;99.90
9437;DHT22;4757;59.334;18.034;2023-04-03T00:15:32;-2.10;99.90
9437;DHT22;4757;59.334;18.034;2023-04-03T00:17:59;-2.10;99.90
9437;DHT22;4757;59.334;18.034;2023-04-03T00:20:27;-2.10;99.90
9437;DHT22;4757;59.334;18.034;2023-04-03T00:22:54;-2.10;99.90
9437;DHT22;4757;59.334;18.034;2023-04-03T00:25:21;-2.00;99.90
9437;DHT22;4757;59.334;18.034;2023-04-03T00:27:49;-2.10;99.90
9437;DHT22;4757;59.334;18.034;2023-04-03T00:30:18;-2.00;99.90
9437;DHT22;4757;59.334;18.034;2023-04-03T00:32:50;-2.10;99.90
9437;DHT22;4757;59.334;18.034;2023-04-03T00:35:19;-2.10;99.90
9437;DHT22;4757;59.334;18.034;2023-04-03T00:37:47;-2.00;99.90
9437;DHT22;4757;59.334;18.034;2023-04-03T00:40:14;-2.10;99.90
9437;DHT22;4757;59.334;18.034;2023-04-03T00:42:43;-2.10;99.90
9437;DHT22;4757;59.334;18.034;2023-04-03T00:47:39;-2.10;99.90
9437;DHT22;4757;59.334;18.034;2023-04-03T00:50:13;-2.10;99.90
9437;DHT22;4757;59.334;18.034;2023-04-03T00:52:41;-2.20;99.90
9437;DHT22;4757;59.334;18.034;2023-04-03T00:55:09;-2.10;99.90
9437;DHT22;4757;59.334;18.034;2023-04-03T00:57:37;-2.10;99.90
9437;DHT22;4757;59.334;18.034;2023-04-03T01:00:10;-2.20;99.90
9437;DHT22;4757;59.334;18.034;2023-04-03T01:02:38;-2.20;99.90
9437;DHT22;4757;59.334;18.034;2023-04-03T01:05:07;-2.10;99.90
9437;DHT22;4757;59.334;18.034;2023-04-03T01:07:35;-2.10;99.90
9437;DHT22;4757;59.334;18.034;2023-04-03T01:10:07;-2.10;99.90
9437;DHT22;4757;59.334;18.034;2023-04-03T01:12:38;-2.10;99.90
9437;DHT22;4757;59.334;18.034;2023-04-03T01:15:24;-2.10;99.90
9437;DHT22;4757;59.334;18.034;2023-04-03T01:17:57;-2.10;99.90
9437;DHT22;4757;59.334;18.034;2023-04-03T01:25:45;-2.20;99.90
9437;DHT22;4757;59.334;18.034;2023-04-03T01:28:29;-2.20;99.90
9437;DHT22;4757;59.334;18.034;2023-04-03T01:31:18;-2.20;99.90
9437;DHT22;4757;59.334;18.034;2023-04-03T01:33:47;-2.20;99.90
9437;DHT22;4757;59.334;18.034;2023-04-03T01:36:20;-2.10;99.90
9437;DHT22;4757;59.334;18.034;2023-04-03T01:38:48;-2.10;99.90
9437;DHT22;4757;59.334;18.034;2023-04-03T01:41:15;-2.10;99.90
9437;DHT22;4757;59.334;18.034;2023-04-03T01:43:43;-2.10;99.90
9437;DHT22;4757;59.334;18.034;2023-04-03T01:46:10;-2.00;99.90
9437;DHT22;4757;59.334;18.034;2023-04-03T01:48:38;-2.10;99.90
9437;DHT22;4757;59.334;18.034;2023-04-03T01:51:05;-2.00;99.90
9437;DHT22;4757;59.334;18.034;2023-04-03T01:53:32;-2.00;99.90
9437;DHT22;4757;59.334;18.034;2023-04-03T01:55:59;-2.00;99.90
9437;DHT22;4757;59.334;18.034;2023-04-03T01:58:27;-2.10;99.90
9437;DHT22;4757;59.334;18.034;2023-04-03T02:00:54;-2.10;99.90
9437;DHT22;4757;59.334;18.034;2023-04-03T02:03:21;-2.10;99.90
9437;DHT22;4757;59.334;18.034;2023-04-03T02:05:49;-2.10;99.90
9437;DHT22;4757;59.334;18.034;2023-04-03T02:08:16;-2.00;99.90
9437;DHT22;4757;59.334;18.034;2023-04-03T02:10:50;-2.10;99.90
9437;DHT22;4757;59.334;18.034;2023-04-03T02:13:18;-2.10;99.90
9437;DHT22;4757;59.334;18.034;2023-04-03T02:15:45;-2.10;99.90
9437;DHT22;4757;59.334;18.034;2023-04-03T02:18:12;-2.10;99.90
9437;DHT22;4757;59.334;18.034;2023-04-03T02:20:40;-2.10;99.90
9437;DHT22;4757;59.334;18.034;2023-04-03T02:23:07;-2.10;99.90
9437;DHT22;4757;59.334;18.034;2023-04-03T02:25:34;-2.10;99.90
9437;DHT22;4757;59.334;18.034;2023-04-03T02:28:04;-2.10;99.90
9437;DHT22;4757;59.334;18.034;2023-04-03T02:30:31;-2.20;99.90
9437;DHT22;4757;59.334;18.034;2023-04-03T02:32:58;-2.20;99.90
9437;DHT22;4757;59.334;18.034;2023-04-03T02:35:26;-2.20;99.90
9437;DHT22;4757;59.334;18.034;2023-04-03T02:37:53;-2.30;99.90
9437;DHT22;4757;59.334;18.034;2023-04-03T02:40:20;-2.30;99.90
9437;DHT22;4757;59.334;18.034;2023-04-03T02:42:47;-2.30;99.90
9437;DHT22;4757;59.334;18.034;2023-04-03T02:45:14;-2.20;99.90
9437;DHT22;4757;59.334;18.034;2023-04-03T02:47:41;-2.20;99.90
9437;DHT22;4757;59.334;18.034;2023-04-03T02:50:09;-2.20;99.90
9437;DHT22;4757;59.334;18.034;2023-04-03T02:52:36;-2.30;99.90
9437;DHT22;4757;59.334;18.034;2023-04-03T02:55:03;-2.30;99.90
9437;DHT22;4757;59.334;18.034;2023-04-03T02:57:30;-2.30;99.90
9437;DHT22;4757;59.334;18.034;2023-04-03T02:59:57;-2.30;99.90
9437;DHT22;4757;59.334;18.034;2023-04-03T03:02:24;-2.40;99.90
9437;DHT22;4757;59.334;18.034;2023-04-03T03:04:51;-2.40;99.90
9437;DHT22;4757;59.334;18.034;2023-04-03T03:07:18;-2.40;99.90
9437;DHT22;4757;59.334;18.034;2023-04-03T03:09:46;-2.50;99.90
9437;DHT22;4757;59.334;18.034;2023-04-03T03:12:13;-2.50;99.90
9437;DHT22;4757;59.334;18.034;2023-04-03T03:14:40;-2.50;99.90
9437;DHT22;4757;59.334;18.034;2023-04-03T03:17:09;-2.50;99.90
9437;DHT22;4757;59.334;18.034;2023-04-03T03:19:36;-2.50;99.90
9437;DHT22;4757;59.334;18.034;2023-04-03T03:22:03;-2.60;99.90
9437;DHT22;4757;59.334;18.034;2023-04-03T03:24:30;-2.70;99.90
9437;DHT22;4757;59.334;18.034;2023-04-03T03:26:58;-2.70;99.90
9437;DHT22;4757;59.334;18.034;2023-04-03T03:29:25;-2.80;99.90
9437;DHT22;4757;59.334;18.034;2023-04-03T03:31:52;-2.80;99.90
9437;DHT22;4757;59.334;18.034;2023-04-03T03:34:19;-2.80;99.90
9437;DHT22;4757;59.334;18.034;2023-04-03T03:36:46;-2.70;99.90
9437;DHT22;4757;59.334;18.034;2023-04-03T03:39:13;-2.70;99.90
9437;DHT22;4757;59.334;18.034;2023-04-03T03:41:40;-2.70;99.90
9437;DHT22;4757;59.334;18.034;2023-04-03T03:44:07;-2.70;99.90
9437;DHT22;4757;59.334;18.034;2023-04-03T03:46:35;-2.70;99.90
9437;DHT22;4757;59.334;18.034;2023-04-03T03:49:02;-2.70;99.90
9437;DHT22;4757;59.334;18.034;2023-04-03T03:51:29;-2.70;99.90
9437;DHT22;4757;59.334;18.034;2023-04-03T03:53:56;-2.70;99.90
9437;DHT22;4757;59.334;18.034;2023-04-03T03:56:23;-2.70;99.90
9437;DHT22;4757;59.334;18.034;2023-04-03T03:58:51;-2.70;99.90
9437;DHT22;4757;59.334;18.034;2023-04-03T04:04:03;-2.70;99.90
9437;DHT22;4757;59.334;18.034;2023-04-03T04:06:30;-2.70;99.90
9437;DHT22;4757;59.334;18.034;2023-04-03T04:08:57;-2.70;99.90
9437;DHT22;4757;59.334;18.034;2023-04-03T04:11:24;-2.80;99.90
9437;DHT22;4757;59.334;18.034;2023-04-03T04:13:52;-2.80;99.90
9437;DHT22;4757;59.334;18.034;2023-04-03T04:16:19;-2.80;99.90
9437;DHT22;4757;59.334;18.034;2023-04-03T04:18:48;-2.70;99.90
9437;DHT22;4757;59.334;18.034;2023-04-03T04:21:15;-2.70;99.90
9437;DHT22;4757;59.334;18.034;2023-04-03T04:23:42;-2.80;99.90
9437;DHT22;4757;59.334;18.034;2023-04-03T04:26:09;-2.80;99.90
9437;DHT22;4757;59.334;18.034;2023-04-03T04:28:36;-2.80;99.90
9437;DHT22;4757;59.334;18.034;2023-04-03T04:31:04;-2.70;99.90
9437;DHT22;4757;59.334;18.034;2023-04-03T04:33:31;-2.80;99.90
9437;DHT22;4757;59.334;18.034;2023-04-03T04:35:58;-2.70;99.90
9437;DHT22;4757;59.334;18.034;2023-04-03T04:38:26;-2.70;99.90
9437;DHT22;4757;59.334;18.034;2023-04-03T04:40:53;-2.60;99.90
9437;DHT22;4757;59.334;18.034;2023-04-03T04:43:20;-2.60;99.90
9437;DHT22;4757;59.334;18.034;2023-04-03T04:45:47;-2.70;99.90
9437;DHT22;4757;59.334;18.034;2023-04-03T04:48:15;-2.60;99.90
9437;DHT22;4757;59.334;18.034;2023-04-03T04:50:42;-2.60;99.90
9437;DHT22;4757;59.334;18.034;2023-04-03T04:53:09;-2.50;99.90
9437;DHT22;4757;59.334;18.034;2023-04-03T04:55:36;-2.60;99.90
9437;DHT22;4757;59.334;18.034;2023-04-03T04:58:04;-2.60;99.90
9437;DHT22;4757;59.334;18.034;2023-04-03T05:00:31;-2.50;99.90
9437;DHT22;4757;59.334;18.034;2023-04-03T05:02:58;-2.50;99.90
9437;DHT22;4757;59.334;18.034;2023-04-03T05:05:25;-2.50;99.90
9437;DHT22;4757;59.334;18.034;2023-04-03T05:07:53;-2.40;99.90
9437;DHT22;4757;59.334;18.034;2023-04-03T05:10:20;-2.40;99.90
9437;DHT22;4757;59.334;18.034;2023-04-03T05:12:47;-2.50;99.90
9437;DHT22;4757;59.334;18.034;2023-04-03T05:15:14;-2.40;99.90
9437;DHT22;4757;59.334;18.034;2023-04-03T05:17:41;-2.30;99.90
9437;DHT22;4757;59.334;18.034;2023-04-03T05:20:09;-2.20;99.90
9437;DHT22;4757;59.334;18.034;2023-04-03T05:22:36;-2.30;99.90
9437;DHT22;4757;59.334;18.034;2023-04-03T05:25:05;-2.20;99.90
9437;DHT22;4757;59.334;18.034;2023-04-03T05:27:32;-2.20;99.90
9437;DHT22;4757;59.334;18.034;2023-04-03T05:29:59;-2.10;99.90
9437;DHT22;4757;59.334;18.034;2023-04-03T05:32:27;-2.00;99.90
9437;DHT22;4757;59.334;18.034;2023-04-03T05:34:54;-1.90;99.90
9437;DHT22;4757;59.334;18.034;2023-04-03T05:37:21;-1.90;99.90
9437;DHT22;4757;59.334;18.034;2023-04-03T05:39:49;-1.80;99.90
9437;DHT22;4757;59.334;18.034;2023-04-03T05:42:16;-1.80;99.90
9437;DHT22;4757;59.334;18.034;2023-04-03T05:44:43;-1.80;99.90
9437;DHT22;4757;59.334;18.034;2023-04-03T05:47:13;-1.70;99.90
9437;DHT22;4757;59.334;18.034;2023-04-03T05:49:40;-1.60;99.90
9437;DHT22;4757;59.334;18.034;2023-04-03T05:52:26;-1.60;99.90
9437;DHT22;4757;59.334;18.034;2023-04-03T05:54:55;-1.60;99.90
9437;DHT22;4757;59.334;18.034;2023-04-03T05:57:23;-1.40;99.90
9437;DHT22;4757;59.334;18.034;2023-04-03T05:59:50;-1.30;99.90
9437;DHT22;4757;59.334;18.034;2023-04-03T06:02:20;-1.30;99.90
9437;DHT22;4757;59.334;18.034;2023-04-03T06:04:47;-1.30;99.90
9437;DHT22;4757;59.334;18.034;2023-04-03T06:07:18;-1.10;99.90
9437;DHT22;4757;59.334;18.034;2023-04-03T06:09:51;-0.10;99.90
9437;DHT22;4757;59.334;18.034;2023-04-03T06:12:19;0.10;99.90
9437;DHT22;4757;59.334;18.034;2023-04-03T06:14:48;0.30;99.90
9437;DHT22;4757;59.334;18.034;2023-04-03T06:17:16;0.40;99.90
9437;DHT22;4757;59.334;18.034;2023-04-03T06:19:45;0.70;99.90
9437;DHT22;4757;59.334;18.034;2023-04-03T06:22:12;0.40;99.90
9437;DHT22;4757;59.334;18.034;2023-04-03T06:24:40;0.40;99.90
9437;DHT22;4757;59.334;18.034;2023-04-03T06:27:10;0.70;99.90
9437;DHT22;4757;59.334;18.034;2023-04-03T06:29:37;0.90;99.90
9437;DHT22;4757;59.334;18.034;2023-04-03T06:32:05;1.00;99.90
9437;DHT22;4757;59.334;18.034;2023-04-03T06:34:33;1.00;99.90
9437;DHT22;4757;59.334;18.034;2023-04-03T06:37:01;0.80;99.90
9437;DHT22;4757;59.334;18.034;2023-04-03T06:39:28;1.10;99.90
9437;DHT22;4757;59.334;18.034;2023-04-03T06:41:56;1.40;99.90
9437;DHT22;4757;59.334;18.034;2023-04-03T06:44:23;1.90;99.90
9437;DHT22;4757;59.334;18.034;2023-04-03T06:46:52;2.10;99.90
9437;DHT22;4757;59.334;18.034;2023-04-03T06:49:21;1.70;99.90
9437;DHT22;4757;59.334;18.034;2023-04-03T06:51:48;2.70;99.90
9437;DHT22;4757;59.334;18.034;2023-04-03T06:54:17;1.90;99.90
9437;DHT22;4757;59.334;18.034;2023-04-03T06:56:45;2.20;99.90
9437;DHT22;4757;59.334;18.034;2023-04-03T06:59:12;2.30;99.90
9437;DHT22;4757;59.334;18.034;2023-04-03T07:01:41;2.90;99.90
9437;DHT22;4757;59.334;18.034;2023-04-03T07:04:09;1.90;99.90
9437;DHT22;4757;59.334;18.034;2023-04-03T07:06:38;2.30;99.90
9437;DHT22;4757;59.334;18.034;2023-04-03T07:09:06;2.00;99.90
9437;DHT22;4757;59.334;18.034;2023-04-03T07:11:34;2.30;99.90
9437;DHT22;4757;59.334;18.034;2023-04-03T07:14:02;2.20;99.90
9437;DHT22;4757;59.334;18.034;2023-04-03T07:16:29;2.80;99.90
9437;DHT22;4757;59.334;18.034;2023-04-03T07:18:59;3.10;99.90
9437;DHT22;4757;59.334;18.034;2023-04-03T07:21:28;3.30;99.90
9437;DHT22;4757;59.334;18.034;2023-04-03T07:23:58;3.80;99.90
9437;DHT22;4757;59.334;18.034;2023-04-03T07:26:27;3.40;99.90
9437;DHT22;4757;59.334;18.034;2023-04-03T07:28:54;3.30;99.90
9437;DHT22;4757;59.334;18.034;2023-04-03T07:31:21;3.30;99.90
9437;DHT22;4757;59.334;18.034;2023-04-03T07:33:49;2.70;99.90
9437;DHT22;4757;59.334;18.034;2023-04-03T07:36:22;2.80;99.90
9437;DHT22;4757;59.334;18.034;2023-04-03T07:38:52;3.50;99.90
9437;DHT22;4757;59.334;18.034;2023-04-03T07:41:21;3.20;99.90
9437;DHT22;4757;59.334;18.034;2023-04-03T07:43:49;2.70;99.90
9437;DHT22;4757;59.334;18.034;2023-04-03T07:46:17;2.80;99.90
9437;DHT22;4757;59.334;18.034;2023-04-03T07:48:44;2.70;99.90
9437;DHT22;4757;59.334;18.034;2023-04-03T07:51:12;2.10;99.90
9437;DHT22;4757;59.334;18.034;2023-04-03T07:53:40;2.60;99.90
9437;DHT22;4757;59.334;18.034;2023-04-03T07:56:07;3.00;99.90
9437;DHT22;4757;59.334;18.034;2023-04-03T07:58:35;2.60;99.90
9437;DHT22;4757;59.334;18.034;2023-04-03T08:01:04;2.70;99.90
9437;DHT22;4757;59.334;18.034;2023-04-03T08:03:34;3.00;99.90
9437;DHT22;4757;59.334;18.034;2023-04-03T08:06:03;3.40;99.90
9437;DHT22;4757;59.334;18.034;2023-04-03T08:08:34;2.50;99.90
9437;DHT22;4757;59.334;18.034;2023-04-03T08:11:03;2.50;99.90
9437;DHT22;4757;59.334;18.034;2023-04-03T08:13:32;2.60;99.90
9437;DHT22;4757;59.334;18.034;2023-04-03T08:16:12;2.50;99.90
9437;DHT22;4757;59.334;18.034;2023-04-03T08:18:39;3.10;99.90
9437;DHT22;4757;59.334;18.034;2023-04-03T08:21:11;3.20;99.90
9437;DHT22;4757;59.334;18.034;2023-04-03T08:23:42;2.60;99.90
9437;DHT22;4757;59.334;18.034;2023-04-03T08:26:13;2.90;99.90
9437;DHT22;4757;59.334;18.034;2023-04-03T08:28:40;3.10;99.90
9437;DHT22;4757;59.334;18.034;2023-04-03T08:31:14;3.00;99.90
9437;DHT22;4757;59.334;18.034;2023-04-03T08:33:42;2.90;99.90
9437;DHT22;4757;59.334;18.034;2023-04-03T08:36:30;3.40;99.90
9437;DHT22;4757;59.334;18.034;2023-04-03T08:38:59;3.30;99.90
9437;DHT22;4757;59.334;18.034;2023-04-03T08:41:37;3.00;99.90
9437;DHT22;4757;59.334;18.034;2023-04-03T08:49:42;3.50;99.90
9437;DHT22;4757;59.334;18.034;2023-04-03T08:52:19;3.60;99.90
9437;DHT22;4757;59.334;18.034;2023-04-03T08:54:53;4.00;99.90
9437;DHT22;4757;59.334;18.034;2023-04-03T08:57:32;4.00;99.90
9437;DHT22;4757;59.334;18.034;2023-04-03T09:00:07;4.40;99.90
9437;DHT22;4757;59.334;18.034;2023-04-03T09:02:52;3.60;99.90
9437;DHT22;4757;59.334;18.034;2023-04-03T09:08:27;4.70;99.90
9437;DHT22;4757;59.334;18.034;2023-04-03T09:11:23;4.60;99.90
9437;DHT22;4757;59.334;18.034;2023-04-03T09:14:52;4.60;99.90
9437;DHT22;4757;59.334;18.034;2023-04-03T09:17:21;4.50;99.90
9437;DHT22;4757;59.334;18.034;2023-04-03T09:19:58;4.40;99.90
9437;DHT22;4757;59.334;18.034;2023-04-03T09:22:50;4.30;99.90
9437;DHT22;4757;59.334;18.034;2023-04-03T09:25:29;4.30;99.90
9437;DHT22;4757;59.334;18.034;2023-04-03T09:28:01;4.40;99.90
9437;DHT22;4757;59.334;18.034;2023-04-03T09:30:31;5.60;99.90
9437;DHT22;4757;59.334;18.034;2023-04-03T09:33:00;6.30;99.90
9437;DHT22;4757;59.334;18.034;2023-04-03T09:35:32;5.50;99.90
9437;DHT22;4757;59.334;18.034;2023-04-03T09:40:47;4.70;99.90
9437;DHT22;4757;59.334;18.034;2023-04-03T09:43:25;4.90;99.90
9437;DHT22;4757;59.334;18.034;2023-04-03T09:45:54;5.10;99.90
9437;DHT22;4757;59.334;18.034;2023-04-03T09:48:25;5.30;99.90
9437;DHT22;4757;59.334;18.034;2023-04-03T09:50:58;5.30;99.90
9437;DHT22;4757;59.334;18.034;2023-04-03T09:53:40;5.00;99.90
9437;DHT22;4757;59.334;18.034;2023-04-03T09:58:46;4.50;99.90
9437;DHT22;4757;59.334;18.034;2023-04-03T10:01:37;5.10;99.90
9437;DHT22;4757;59.334;18.034;2023-04-03T10:06:48;4.20;99.90
9437;DHT22;4757;59.334;18.034;2023-04-03T10:09:25;4.30;99.90
9437;DHT22;4757;59.334;18.034;2023-04-03T10:12:10;4.40;99.90
9437;DHT22;4757;59.334;18.034;2023-04-03T10:14:54;4.20;99.90
9437;DHT22;4757;59.334;18.034;2023-04-03T10:20:47;4.10;99.90
9437;DHT22;4757;59.334;18.034;2023-04-03T10:26:12;4.10;99.90
9437;DHT22;4757;59.334;18.034;2023-04-03T10:29:07;4.00;99.90
9437;DHT22;4757;59.334;18.034;2023-04-03T10:34:31;4.10;99.90
9437;DHT22;4757;59.334;18.034;2023-04-03T10:37:19;4.00;99.90
9437;DHT22;4757;59.334;18.034;2023-04-03T10:46:03;3.90;99.90
9437;DHT22;4757;59.334;18.034;2023-04-03T10:57:04;4.20;99.90
9437;DHT22;4757;59.334;18.034;2023-04-03T10:59:49;4.40;99.90
9437;DHT22;4757;59.334;18.034;2023-04-03T11:05:40;4.30;99.90
9437;DHT22;4757;59.334;18.034;2023-04-03T11:10:57;4.00;99.90
9437;DHT22;4757;59.334;18.034;2023-04-03T11:13:35;4.10;99.90
9437;DHT22;4757;59.334;18.034;2023-04-03T11:16:08;4.00;99.90
9437;DHT22;4757;59.334;18.034;2023-04-03T11:18:37;4.20;99.90
9437;DHT22;4757;59.334;18.034;2023-04-03T11:21:19;4.20;99.90
9437;DHT22;4757;59.334;18.034;2023-04-03T11:23:49;3.90;99.90
9437;DHT22;4757;59.334;18.034;2023-04-03T11:26:21;4.00;99.90
9437;DHT22;4757;59.334;18.034;2023-04-03T11:28:53;4.00;99.90
9437;DHT22;4757;59.334;18.034;2023-04-03T11:31:38;4.10;99.90
9437;DHT22;4757;59.334;18.034;2023-04-03T11:34:41;4.20;99.90
9437;DHT22;4757;59.334;18.034;2023-04-03T11:37:30;4.30;99.90
9437;DHT22;4757;59.334;18.034;2023-04-03T11:40:06;4.20;99.90
9437;DHT22;4757;59.334;18.034;2023-04-03T11:42:46;4.40;99.90
9437;DHT22;4757;59.334;18.034;2023-04-03T11:47:57;4.50;99.90
9437;DHT22;4757;59.334;18.034;2023-04-03T11:50:40;4.50;99.90
9437;DHT22;4757;59.334;18.034;2023-04-03T12:00:58;4.30;99.90
9437;DHT22;4757;59.334;18.034;2023-04-03T12:08:34;4.30;99.90
9437;DHT22;4757;59.334;18.034;2023-04-03T12:16:32;4.40;99.90
9437;DHT22;4757;59.334;18.034;2023-04-03T12:35:20;5.00;99.90
9437;DHT22;4757;59.334;18.034;2023-04-03T12:48:58;6.10;99.60
9437;DHT22;4757;59.334;18.034;2023-04-03T12:51:37;6.00;98.50
9437;DHT22;4757;59.334;18.034;2023-04-03T12:54:18;6.20;98.70
9437;DHT22;4757;59.334;18.034;2023-04-03T12:56:46;6.00;96.80
9437;DHT22;4757;59.334;18.034;2023-04-03T12:59:22;5.80;97.60
9437;DHT22;4757;59.334;18.034;2023-04-03T13:01:57;6.20;98.10
9437;DHT22;4757;59.334;18.034;2023-04-03T13:04:28;6.20;96.90
9437;DHT22;4757;59.334;18.034;2023-04-03T13:06:56;6.00;98.00
9437;DHT22;4757;59.334;18.034;2023-04-03T13:09:29;6.60;99.10
9437;DHT22;4757;59.334;18.034;2023-04-03T13:14:27;5.90;99.90
9437;DHT22;4757;59.334;18.034;2023-04-03T13:19:31;6.60;99.90
9437;DHT22;4757;59.334;18.034;2023-04-03T13:22:05;6.60;99.90
9437;DHT22;4757;59.334;18.034;2023-04-03T13:24:35;6.40;99.90
9437;DHT22;4757;59.334;18.034;2023-04-03T13:27:04;6.70;99.90
9437;DHT22;4757;59.334;18.034;2023-04-03T13:29:36;6.40;99.90
9437;DHT22;4757;59.334;18.034;2023-04-03T13:32:22;6.70;99.90
9437;DHT22;4757;59.334;18.034;2023-04-03T13:34:50;7.00;99.90
9437;DHT22;4757;59.334;18.034;2023-04-03T13:37:27;6.60;99.90
9437;DHT22;4757;59.334;18.034;2023-04-03T13:42:37;6.70;99.90
9437;DHT22;4757;59.334;18.034;2023-04-03T13:45:24;6.60;99.90
9437;DHT22;4757;59.334;18.034;2023-04-03T13:48:14;6.20;99.90
9437;DHT22;4757;59.334;18.034;2023-04-03T13:56:25;6.30;99.90
9437;DHT22;4757;59.334;18.034;2023-04-03T14:01:47;6.00;99.90
9437;DHT22;4757;59.334;18.034;2023-04-03T14:04:22;6.30;99.90
9437;DHT22;4757;59.334;18.034;2023-04-03T14:06:50;6.40;99.90
9437;DHT22;4757;59.334;18.034;2023-04-03T14:09:19;6.30;99.90
9437;DHT22;4757;59.334;18.034;2023-04-03T14:11:51;6.00;99.90
9437;DHT22;4757;59.334;18.034;2023-04-03T14:14:29;5.60;99.90
9437;DHT22;4757;59.334;18.034;2023-04-03T14:17:00;5.40;99.90
9437;DHT22;4757;59.334;18.034;2023-04-03T14:19:35;5.40;99.90
9437;DHT22;4757;59.334;18.034;2023-04-03T14:22:17;5.50;99.90
9437;DHT22;4757;59.334;18.034;2023-04-03T14:24:45;5.50;99.90
9437;DHT22;4757;59.334;18.034;2023-04-03T14:27:21;5.20;99.90
9437;DHT22;4757;59.334;18.034;2023-04-03T14:29:50;5.30;99.90
9437;DHT22;4757;59.334;18.034;2023-04-03T14:32:19;5.50;99.90
9437;DHT22;4757;59.334;18.034;2023-04-03T14:34:48;5.60;99.90
9437;DHT22;4757;59.334;18.034;2023-04-03T14:37:22;5.70;99.90
9437;DHT22;4757;59.334;18.034;2023-04-03T14:39:50;5.60;99.90
9437;DHT22;4757;59.334;18.034;2023-04-03T14:42:21;5.40;99.90
9437;DHT22;4757;59.334;18.034;2023-04-03T14:44:49;5.20;99.90
9437;DHT22;4757;59.334;18.034;2023-04-03T14:47:19;5.10;99.90
9437;DHT22;4757;59.334;18.034;2023-04-03T14:50:02;5.20;99.90
9437;DHT22;4757;59.334;18.034;2023-04-03T14:52:33;5.00;99.90
9437;DHT22;4757;59.334;18.034;2023-04-03T14:55:02;5.10;99.90
9437;DHT22;4757;59.334;18.034;2023-04-03T14:57:29;5.30;99.90
9437;DHT22;4757;59.334;18.034;2023-04-03T14:59:57;5.30;99.90
9437;DHT22;4757;59.334;18.034;2023-04-03T15:05:01;5.30;99.90
9437;DHT22;4757;59.334;18.034;2023-04-03T15:07:36;5.20;99.90
9437;DHT22;4757;59.334;18.034;2023-04-03T15:10:17;5.20;99.90
9437;DHT22;4757;59.334;18.034;2023-04-03T15:12:47;5.10;99.90
9437;DHT22;4757;59.334;18.034;2023-04-03T15:15:17;5.20;99.90
9437;DHT22;4757;59.334;18.034;2023-04-03T15:17:47;4.90;99.90
9437;DHT22;4757;59.334;18.034;2023-04-03T15:20:20;5.00;99.90
9437;DHT22;4757;59.334;18.034;2023-04-03T15:22:47;5.20;99.90
9437;DHT22;4757;59.334;18.034;2023-04-03T15:25:15;5.20;99.90
9437;DHT22;4757;59.334;18.034;2023-04-03T15:27:43;5.10;99.90
9437;DHT22;4757;59.334;18.034;2023-04-03T15:30:17;5.20;99.90
9437;DHT22;4757;59.334;18.034;2023-04-03T15:32:46;5.00;99.90
9437;DHT22;4757;59.334;18.034;2023-04-03T15:35:14;4.80;99.90
9437;DHT22;4757;59.334;18.034;2023-04-03T15:37:42;4.90;99.90
9437;DHT22;4757;59.334;18.034;2023-04-03T15:40:10;4.80;99.90
9437;DHT22;4757;59.334;18.034;2023-04-03T15:42:38;4.70;99.90
9437;DHT22;4757;59.334;18.034;2023-04-03T15:45:07;4.60;99.90
9437;DHT22;4757;59.334;18.034;2023-04-03T15:47:35;4.70;99.90
9437;DHT22;4757;59.334;18.034;2023-04-03T15:50:03;4.80;99.90
9437;DHT22;4757;59.334;18.034;2023-04-03T15:52:33;4.70;99.90
9437;DHT22;4757;59.334;18.034;2023-04-03T15:55:01;4.40;99.90
9437;DHT22;4757;59.334;18.034;2023-04-03T15:57:28;4.40;99.90
9437;DHT22;4757;59.334;18.034;2023-04-03T16:00:00;4.40;99.90
9437;DHT22;4757;59.334;18.034;2023-04-03T16:02:30;4.40;99.90
9437;DHT22;4757;59.334;18.034;2023-04-03T16:04:58;4.40;99.90
9437;DHT22;4757;59.334;18.034;2023-04-03T16:07:26;4.20;99.90
9437;DHT22;4757;59.334;18.034;2023-04-03T16:09:54;4.20;99.90
9437;DHT22;4757;59.334;18.034;2023-04-03T16:12:21;4.20;99.90
9437;DHT22;4757;59.334;18.034;2023-04-03T16:14:48;4.20;99.90
9437;DHT22;4757;59.334;18.034;2023-04-03T16:17:15;4.40;99.90
9437;DHT22;4757;59.334;18.034;2023-04-03T16:19:43;4.30;99.90
9437;DHT22;4757;59.334;18.034;2023-04-03T16:22:13;4.20;99.90
9437;DHT22;4757;59.334;18.034;2023-04-03T16:24:40;4.10;99.90
9437;DHT22;4757;59.334;18.034;2023-04-03T16:27:08;4.10;99.90
9437;DHT22;4757;59.334;18.034;2023-04-03T16:29:35;4.00;99.90
9437;DHT22;4757;59.334;18.034;2023-04-03T16:32:02;4.00;99.90
9437;DHT22;4757;59.334;18.034;2023-04-03T16:34:29;4.00;99.90
9437;DHT22;4757;59.334;18.034;2023-04-03T16:37:00;3.90;99.90
9437;DHT22;4757;59.334;18.034;2023-04-03T16:39:27;4.00;99.90
9437;DHT22;4757;59.334;18.034;2023-04-03T16:41:57;4.00;99.90
9437;DHT22;4757;59.334;18.034;2023-04-03T16:44:24;3.90;99.90
9437;DHT22;4757;59.334;18.034;2023-04-03T16:46:51;3.80;99.90
9437;DHT22;4757;59.334;18.034;2023-04-03T16:49:18;3.80;99.90
9437;DHT22;4757;59.334;18.034;2023-04-03T16:51:47;3.80;99.90
9437;DHT22;4757;59.334;18.034;2023-04-03T16:54:15;3.70;99.90
9437;DHT22;4757;59.334;18.034;2023-04-03T16:56:46;3.60;99.90
9437;DHT22;4757;59.334;18.034;2023-04-03T16:59:13;3.60;99.90
9437;DHT22;4757;59.334;18.034;2023-04-03T17:01:40;3.50;99.90
9437;DHT22;4757;59.334;18.034;2023-04-03T17:04:07;3.50;99.90
9437;DHT22;4757;59.334;18.034;2023-04-03T17:06:34;3.40;99.90
9437;DHT22;4757;59.334;18.034;2023-04-03T17:09:02;3.50;99.90
9437;DHT22;4757;59.334;18.034;2023-04-03T17:11:30;3.40;99.90
9437;DHT22;4757;59.334;18.034;2023-04-03T17:13:57;3.30;99.90
9437;DHT22;4757;59.334;18.034;2023-04-03T17:16:26;3.30;99.90
9437;DHT22;4757;59.334;18.034;2023-04-03T17:18:54;3.30;99.90
9437;DHT22;4757;59.334;18.034;2023-04-03T17:21:22;3.20;99.90
9437;DHT22;4757;59.334;18.034;2023-04-03T17:23:54;3.20;99.90
9437;DHT22;4757;59.334;18.034;2023-04-03T17:26:25;3.20;99.90
9437;DHT22;4757;59.334;18.034;2023-04-03T17:28:52;3.10;99.90
9437;DHT22;4757;59.334;18.034;2023-04-03T17:31:20;3.10;99.90
9437;DHT22;4757;59.334;18.034;2023-04-03T17:33:47;3.10;99.90
9437;DHT22;4757;59.334;18.034;2023-04-03T17:36:14;3.00;99.90
9437;DHT22;4757;59.334;18.034;2023-04-03T17:38:42;3.00;99.90
9437;DHT22;4757;59.334;18.034;2023-04-03T17:41:09;3.00;99.90
9437;DHT22;4757;59.334;18.034;2023-04-03T17:43:36;3.00;99.90
9437;DHT22;4757;59.334;18.034;2023-04-03T17:46:09;2.90;99.90
9437;DHT22;4757;59.334;18.034;2023-04-03T17:48:38;2.90;99.90
9437;DHT22;4757;59.334;18.034;2023-04-03T17:51:09;2.90;99.90
9437;DHT22;4757;59.334;18.034;2023-04-03T17:53:37;2.80;99.90
9437;DHT22;4757;59.334;18.034;2023-04-03T17:56:13;2.80;99.90
9437;DHT22;4757;59.334;18.034;2023-04-03T17:58:41;2.80;99.90
9437;DHT22;4757;59.334;18.034;2023-04-03T18:01:18;2.80;99.90
9437;DHT22;4757;59.334;18.034;2023-04-03T18:03:47;2.80;99.90
9437;DHT22;4757;59.334;18.034;2023-04-03T18:06:18;2.70;99.90
9437;DHT22;4757;59.334;18.034;2023-04-03T18:08:50;2.70;99.90
9437;DHT22;4757;59.334;18.034;2023-04-03T18:11:22;2.60;99.90
9437;DHT22;4757;59.334;18.034;2023-04-03T18:13:54;2.60;99.90
9437;DHT22;4757;59.334;18.034;2023-04-03T18:16:25;2.60;99.90
9437;DHT22;4757;59.334;18.034;2023-04-03T18:18:54;2.60;99.90